Time;durP1;ratioP1;P1;durP2;ratioP2;P2;SDS_P1;SDS_P2;PMS_P1;PMS_P2;Temp;Humidity;BMP_temperature;BMP_pressure;BME280_temperature;BME280_humidity;BME280_pressure;Samples;Min_cycle;Max_cycle;Signal;HPM_P1;HPM_P2
2024/01/06 00:01:35;;;;;;;15.73;7.03;;;;;;;5.08;nan;99776.59;4971389;28;20025;-71
2024/01/06 00:04:01;;;;;;;14.38;6.20;;;;;;;;;;4969149;28;20030;-71
2024/01/06 00:06:26;;;;;;;13.30;5.95;;;;;;;;;;4969902;28;20025;-71
2024/01/06 00:08:53;;;;;;;13.70;6.57;;;;;;;;;;4972084;28;20037;-70
2024/01/06 00:11:20;;;;;;;15.38;6.55;;;;;;;;;;4971614;28;20335;-72
2024/01/06 00:13:45;;;;;;;11.80;5.80;;;;;;;;;;4967357;28;20034;-71
2024/01/06 00:16:10;;;;;;;12.17;6.63;;;;;;;;;;4970178;28;20073;-71
2024/01/06 00:18:36;;;;;;;12.30;6.03;;;;;;;;;;4968306;28;20288;-71
2024/01/06 00:21:01;;;;;;;11.40;5.68;;;;;;;;;;4969551;28;20031;-71
2024/01/06 00:23:26;;;;;;;15.20;6.07;;;;;;;;;;4970320;28;20037;-71
2024/01/06 00:25:52;;;;;;;12.00;6.15;;;;;;;;;;4969420;28;20031;-71
2024/01/06 00:28:17;;;;;;;9.80;5.60;;;;;;;;;;4983873;28;20047;-71
2024/01/06 00:30:42;;;;;;;11.57;5.65;;;;;;;5.25;nan;99808.25;4968849;28;21163;-71
2024/01/06 00:33:07;;;;;;;11.27;5.78;;;;;;;;;;4968845;28;20038;-70
2024/01/06 00:35:33;;;;;;;10.73;5.40;;;;;;;;;;4966429;28;20030;-71
2024/01/06 00:38:00;;;;;;;10.80;5.70;;;;;;;;;;4969772;28;20284;-71
2024/01/06 00:40:25;;;;;;;12.18;5.80;;;;;;;;;;4969577;28;20273;-70
2024/01/06 00:42:50;;;;;;;12.48;5.68;;;;;;;;;;4970193;28;20035;-71
2024/01/06 00:45:16;;;;;;;11.67;5.67;;;;;;;;;;4970834;28;20027;-71
2024/01/06 00:47:41;;;;;;;13.02;5.78;;;;;;;;;;4968760;28;20283;-71
2024/01/06 00:50:07;;;;;;;10.32;4.93;;;;;;;;;;4969779;28;20942;-70
2024/01/06 00:52:32;;;;;;;10.18;5.25;;;;;;;;;;4967696;28;20023;-71
2024/01/06 00:54:57;;;;;;;8.50;5.00;;;;;;;;;;4967970;28;20129;-70
2024/01/06 00:57:24;;;;;;;9.87;5.47;;;;;;;5.52;nan;99798.53;4970322;28;20288;-71
2024/01/06 00:59:50;;;;;;;11.93;5.15;;;;;;;5.54;nan;99792.09;4968241;28;20280;-71
2024/01/06 01:02:16;;;;;;;11.15;5.22;;;;;;;5.35;nan;99766.88;4968899;28;20039;-71
2024/01/06 01:04:41;;;;;;;13.23;5.32;;;;;;;5.48;nan;99774.66;4967493;28;20682;-70
2024/01/06 01:07:06;;;;;;;11.80;5.53;;;;;;;5.60;nan;99785.22;4973959;28;20030;-71
2024/01/06 01:09:32;;;;;;;12.48;5.70;;;;;;;5.45;nan;99753.38;4968011;28;20034;-71
2024/01/06 01:11:57;;;;;;;11.82;5.80;;;;;;;5.58;nan;99765.56;4968789;28;20023;-71
2024/01/06 01:14:23;;;;;;;11.45;5.80;;;;;;;5.57;nan;99766.59;4969390;28;20453;-71
2024/01/06 01:16:48;;;;;;;10.95;5.45;;;;;;;5.59;nan;99752.31;4969889;28;20018;-71
2024/01/06 01:19:14;;;;;;;9.50;5.25;;;;;;;5.63;nan;99745.66;4969613;28;20496;-70
2024/01/06 01:21:39;;;;;;;13.07;5.65;;;;;;;5.62;nan;99757.09;4963167;28;20085;-71
2024/01/06 01:24:05;;;;;;;11.43;5.43;;;;;;;5.60;nan;99742.66;4969861;28;20034;-71
2024/01/06 01:26:30;;;;;;;12.02;5.20;;;;;;;5.62;nan;99754.50;4971197;28;20050;-71
2024/01/06 01:28:56;;;;;;;11.98;5.00;;;;;;;5.60;nan;99748.66;4986923;28;20156;-70
2024/01/06 01:31:21;;;;;;;10.60;5.43;;;;;;;5.65;nan;99755.88;4988006;28;20053;-71
2024/01/06 01:33:47;;;;;;;10.23;4.93;;;;;;;5.71;nan;99753.25;4988470;28;20038;-71
2024/01/06 01:36:12;;;;;;;11.90;5.25;;;;;;;5.75;nan;99740.59;4990020;28;20049;-69
2024/01/06 01:38:37;;;;;;;10.25;4.90;;;;;;;5.77;nan;99741.19;4986394;28;20482;-71
2024/01/06 01:41:03;;;;;;;9.65;4.75;;;;;;;;;;4967984;28;20038;-70
2024/01/06 01:43:29;;;;;;;9.57;4.72;;;;;;;;;;4986296;28;20098;-71
2024/01/06 01:45:54;;;;;;;8.02;4.03;;;;;;;;;;4989819;28;20488;-71
2024/01/06 01:48:20;;;;;;;9.23;4.30;;;;;;;;;;4985580;28;20014;-71
2024/01/06 01:50:45;;;;;;;9.43;4.30;;;;;;;;;;4989040;28;20033;-71
2024/01/06 01:53:12;;;;;;;7.75;4.50;;;;;;;;;;4987058;28;20030;-71
2024/01/06 01:55:37;;;;;;;10.02;5.25;;;;;;;;;;4986977;28;20544;-71
2024/01/06 01:58:03;;;;;;;11.75;4.40;;;;;;;;;;4970937;28;20113;-69
2024/01/06 02:00:28;;;;;;;10.13;4.78;;;;;;;;;;4987044;28;20084;-72
2024/01/06 02:02:53;;;;;;;10.77;5.00;;;;;;;;;;4984234;28;20534;-71
2024/01/06 02:05:18;;;;;;;10.05;4.70;;;;;;;;;;4971073;28;20027;-71
2024/01/06 02:07:44;;;;;;;10.18;4.70;;;;;;;;;;4986076;28;20476;-69
2024/01/06 02:10:09;;;;;;;8.73;4.80;;;;;;;;;;4968018;28;20089;-71
2024/01/06 02:12:34;;;;;;;7.70;4.80;;;;;;;;;;4984941;28;20484;-71
2024/01/06 02:15:00;;;;;;;8.25;4.55;;;;;;;;;;4984820;28;20564;-71
2024/01/06 02:17:25;;;;;;;12.75;4.90;;;;;;;;;;4986944;28;20026;-70
2024/01/06 02:19:50;;;;;;;8.38;4.72;;;;;;;;;;4986231;28;20034;-71
2024/01/06 02:22:16;;;;;;;10.73;5.00;;;;;;;;;;4985896;28;20061;-71
2024/01/06 02:24:41;;;;;;;7.82;4.75;;;;;;;;;;4984764;28;20280;-71
2024/01/06 02:27:06;;;;;;;12.10;5.23;;;;;;;;;;4986151;28;20476;-70
2024/01/06 02:29:31;;;;;;;10.20;5.30;;;;;;;;;;4986949;28;20307;-71
2024/01/06 02:31:57;;;;;;;12.90;6.00;;;;;;;;;;4986639;28;20272;-69
2024/01/06 02:34:23;;;;;;;10.77;5.45;;;;;;;;;;4983173;28;20762;-71
2024/01/06 02:36:48;;;;;;;9.75;4.90;;;;;;;;;;4970680;28;20037;-70
2024/01/06 02:39:13;;;;;;;12.25;5.10;;;;;;;;;;4987792;28;20022;-71
2024/01/06 02:41:39;;;;;;;12.00;6.13;;;;;;;;;;4986360;28;20061;-70
2024/01/06 02:44:04;;;;;;;13.32;6.25;;;;;;;;;;4966536;28;20022;-71
2024/01/06 02:46:29;;;;;;;16.55;6.68;;;;;;;;;;4983320;28;20062;-71
2024/01/06 02:48:55;;;;;;;14.27;7.05;;;;;;;;;;4986330;28;20030;-71
2024/01/06 02:51:20;;;;;;;12.90;6.43;;;;;;;;;;4984366;28;20038;-71
2024/01/06 02:53:45;;;;;;;11.53;5.77;;;;;;;;;;4988206;28;20038;-72
2024/01/06 02:56:11;;;;;;;15.10;5.90;;;;;;;;;;4984285;28;20626;-74
2024/01/06 02:58:37;;;;;;;10.90;5.68;;;;;;;;;;4988545;28;20037;-74
2024/01/06 03:01:02;;;;;;;8.98;4.50;;;;;;;;;;4984919;28;20036;-75
2024/01/06 03:03:27;;;;;;;9.25;4.47;;;;;;;;;;4987244;28;20060;-73
2024/01/06 03:05:53;;;;;;;9.23;4.97;;;;;;;;;;4987452;28;20041;-73
2024/01/06 03:08:18;;;;;;;9.50;4.67;;;;;;;;;;4985059;28;20014;-74
2024/01/06 03:10:43;;;;;;;9.57;4.60;;;;;;;;;;4987646;28;20280;-73
2024/01/06 03:13:09;;;;;;;8.02;5.22;;;;;;;;;;4969272;28;20283;-73
2024/01/06 03:15:34;;;;;;;10.73;5.30;;;;;;;;;;4969032;28;20034;-73
2024/01/06 03:17:59;;;;;;;8.73;4.70;;;;;;;;;;4969570;28;20034;-74
2024/01/06 03:20:24;;;;;;;8.38;4.72;;;;;;;;;;4986631;28;21164;-73
2024/01/06 03:22:50;;;;;;;14.57;5.80;;;;;;;;;;4984575;28;20152;-74
2024/01/06 03:25:15;;;;;;;10.20;5.10;;;;;;;;;;4987335;28;20276;-73
2024/01/06 03:27:40;;;;;;;11.97;5.57;;;;;;;;;;4966814;28;20293;-74
2024/01/06 03:30:06;;;;;;;12.35;5.63;;;;;;;;;;4969369;28;20300;-74
2024/01/06 03:32:31;;;;;;;10.80;6.15;;;;;;;;;;4967008;28;20105;-73
2024/01/06 03:34:56;;;;;;;11.13;5.72;;;;;;;;;;4968739;28;20063;-73
2024/01/06 03:37:22;;;;;;;11.40;6.20;;;;;;;;;;4967663;28;20030;-74
2024/01/06 03:39:47;;;;;;;10.10;5.10;;;;;;;;;;4962518;28;20280;-73
2024/01/06 03:42:12;;;;;;;11.15;5.45;;;;;;;;;;4968261;28;20037;-73
2024/01/06 03:44:38;;;;;;;10.05;5.55;;;;;;;;;;4965148;28;20039;-73
2024/01/06 03:47:03;;;;;;;9.07;4.70;;;;;;;;;;4966683;28;20409;-74
2024/01/06 03:49:28;;;;;;;8.77;5.60;;;;;;;;;;4967381;28;20261;-73
2024/01/06 03:51:54;;;;;;;12.80;5.00;;;;;;;;;;4968604;28;20039;-75
2024/01/06 03:54:19;;;;;;;13.48;4.93;;;;;;;;;;4967495;28;20536;-73
2024/01/06 03:56:44;;;;;;;9.97;5.30;;;;;;;;;;4967095;28;20509;-73
2024/01/06 03:59:10;;;;;;;9.98;4.63;;;;;;;;;;4966024;28;20293;-74
2024/01/06 04:01:35;;;;;;;12.27;5.55;;;;;;;;;;4965935;28;20035;-70
2024/01/06 04:04:04;;;;;;;11.13;4.93;;;;;;;;;;4966220;28;20023;-70
2024/01/06 04:06:31;;;;;;;9.97;5.20;;;;;;;;;;4967989;28;20023;-70
2024/01/06 04:08:57;;;;;;;9.27;5.00;;;;;;;;;;4967495;28;20027;-70
2024/01/06 04:11:22;;;;;;;9.40;4.57;;;;;;;;;;4968038;28;20081;-71
2024/01/06 04:13:47;;;;;;;8.57;4.30;;;;;;;;;;4966056;28;20485;-69
2024/01/06 04:16:12;;;;;;;9.07;4.37;;;;;;;;;;4968629;28;20118;-68
2024/01/06 04:18:38;;;;;;;9.23;4.57;;;;;;;;;;4964400;28;20857;-70
2024/01/06 04:21:04;;;;;;;8.60;4.60;;;;;;;;;;4967612;28;20444;-69
2024/01/06 04:23:30;;;;;;;11.85;4.28;;;;;;;;;;4968121;28;20315;-70
2024/01/06 04:25:55;;;;;;;10.07;3.70;;;;;;;;;;4971767;28;20058;-70
2024/01/06 04:28:20;;;;;;;7.45;3.58;;;;;;;;;;4986268;28;20622;-71
2024/01/06 04:30:45;;;;;;;8.77;3.30;;;;;;;;;;4972131;28;20129;-70
2024/01/06 04:33:11;;;;;;;7.67;3.50;;;;;;;;;;4971664;28;20284;-70
2024/01/06 04:35:36;;;;;;;6.13;3.03;;;;;;;;;;4989527;28;20315;-70
2024/01/06 04:38:01;;;;;;;7.53;3.37;;;;;;;;;;4987240;28;20034;-70
2024/01/06 04:40:27;;;;;;;8.65;3.17;;;;;;;;;;4973550;28;20287;-70
2024/01/06 04:42:52;;;;;;;5.80;3.00;;;;;;;;;;4988643;28;20455;-70
2024/01/06 04:45:19;;;;;;;5.90;2.90;;;;;;;;;;4988769;28;20034;-70
2024/01/06 04:47:44;;;;;;;7.00;3.20;;;;;;;;;;4971020;28;20268;-69
2024/01/06 04:50:10;;;;;;;7.05;3.22;;;;;;;;;;4990082;28;20054;-70
2024/01/06 04:52:35;;;;;;;5.20;2.63;;;;;;;;;;4986613;28;20091;-70
2024/01/06 04:55:01;;;;;;;6.13;3.00;;;;;;;;;;4990036;28;20271;-70
2024/01/06 04:57:26;;;;;;;9.02;2.97;;;;;;;;;;4989254;28;20027;-69
2024/01/06 04:59:52;;;;;;;5.63;2.78;;;;;;;;;;4990489;28;20034;-70
2024/01/06 05:02:17;;;;;;;5.87;3.00;;;;;;;;;;4987557;28;20410;-70
2024/01/06 05:04:42;;;;;;;6.97;2.80;;;;;;;;;;4989293;28;20274;-70
2024/01/06 05:07:07;;;;;;;5.90;2.75;;;;;;;;;;4988582;28;20279;-69
2024/01/06 05:09:33;;;;;;;6.57;3.00;;;;;;;;;;4989668;28;20034;-69
2024/01/06 05:11:58;;;;;;;4.90;2.70;;;;;;;;;;4988495;28;20311;-70
2024/01/06 05:14:23;;;;;;;8.63;3.27;;;;;;;;;;4972569;28;20030;-71
2024/01/06 05:16:49;;;;;;;7.93;2.83;;;;;;;;;;4989818;28;20280;-70
2024/01/06 05:19:19;;;;;;;6.50;3.13;;;;;;;;;;4987338;28;20279;-70
2024/01/06 05:21:45;;;;;;;6.18;3.33;;;;;;;;;;4988346;28;20176;-69
2024/01/06 05:24:10;;;;;;;7.18;3.22;;;;;;;;;;4989432;28;20105;-70
2024/01/06 05:26:35;;;;;;;7.40;3.80;;;;;;;;;;4988195;28;20408;-69
2024/01/06 05:29:00;;;;;;;5.97;3.40;;;;;;;;;;4963973;28;20260;-71
2024/01/06 05:31:26;;;;;;;7.73;4.03;;;;;;;;;;4988606;28;20353;-70
2024/01/06 05:33:51;;;;;;;10.85;4.38;;;;;;;;;;4970653;28;20268;-70
2024/01/06 05:36:22;;;;;;;9.90;4.50;;;;;;;;;;4987799;28;20041;-69
2024/01/06 05:38:47;;;;;;;10.10;5.05;;;;;;;;;;4987759;28;20832;-70
2024/01/06 05:41:13;;;;;;;13.00;5.83;;;;;;;;;;4988383;28;20046;-70
2024/01/06 05:43:38;;;;;;;12.00;5.50;;;;;;;;;;4989218;28;20298;-70
2024/01/06 05:46:04;;;;;;;11.52;5.63;;;;;;;;;;4987343;28;20501;-70
2024/01/06 05:48:29;;;;;;;11.02;5.57;;;;;;;;;;4989256;28;20018;-70
2024/01/06 05:50:54;;;;;;;13.73;5.97;;;;;;;;;;4989642;28;20022;-70
2024/01/06 05:53:20;;;;;;;12.88;6.47;;;;;;;;;;4988661;28;20030;-69
2024/01/06 05:55:45;;;;;;;8.63;4.50;;;;;;;;;;4987024;28;20085;-69
2024/01/06 05:58:10;;;;;;;9.07;3.70;;;;;;;;;;4988102;28;20542;-70
2024/01/06 06:00:36;;;;;;;7.43;3.92;;;;;;;;;;4989105;28;20581;-70
2024/01/06 06:03:01;;;;;;;8.05;3.80;;;;;;;;;;4987691;28;20545;-70
2024/01/06 06:05:26;;;;;;;7.30;3.20;;;;;;;;;;4985002;28;20030;-70
2024/01/06 06:07:52;;;;;;;7.77;3.70;;;;;;;;;;4987967;28;20259;-70
2024/01/06 06:10:18;;;;;;;9.00;4.30;;;;;;;;;;4970323;28;20276;-70
2024/01/06 06:12:44;;;;;;;9.65;4.70;;;;;;;;;;4987147;28;20030;-70
2024/01/06 06:15:09;;;;;;;7.65;4.07;;;;;;;;;;4988631;28;20026;-70
2024/01/06 06:17:35;;;;;;;10.68;3.53;;;;;;;;;;4987529;28;20061;-70
2024/01/06 06:20:00;;;;;;;7.97;3.38;;;;;;;;;;4986763;28;20515;-70
2024/01/06 06:22:29;;;;;;;5.22;2.70;;;;;;;;;;4986619;28;20026;-69
2024/01/06 06:24:55;;;;;;;5.03;2.55;;;;;;;;;;4986489;28;20023;-70
2024/01/06 06:27:20;;;;;;;7.25;2.97;;;;;;;;;;4987434;28;20056;-69
2024/01/06 06:29:46;;;;;;;8.00;2.97;;;;;;;6.53;nan;99578.09;4987357;28;20112;-72
2024/01/06 06:32:12;;;;;;;11.07;2.85;;;;;;;;;;4988217;28;20363;-71
2024/01/06 06:34:37;;;;;;;7.45;3.22;;;;;;;6.57;nan;99574.03;4988032;28;20097;-71
2024/01/06 06:37:03;;;;;;;5.70;2.80;;;;;;;6.65;nan;99575.53;4986911;28;20037;-70
2024/01/06 06:39:31;;;;;;;6.30;3.40;;;;;;;6.65;nan;99574.75;4987366;28;20033;-70
2024/01/06 06:41:56;;;;;;;6.00;3.13;;;;;;;6.67;nan;99573.50;4987332;28;20036;-70
2024/01/06 06:44:21;;;;;;;6.75;3.22;;;;;;;6.65;nan;99559.84;4963899;28;20117;-70
2024/01/06 06:46:47;;;;;;;7.90;3.45;;;;;;;6.64;nan;99568.72;4985220;28;20502;-70
2024/01/06 06:49:12;;;;;;;9.10;3.72;;;;;;;6.73;nan;99577.09;4964830;28;20019;-70
2024/01/06 06:51:46;;;;;;;8.60;3.38;;;;;;;6.75;nan;99575.03;4985274;28;20506;-70
2024/01/06 06:54:11;;;;;;;9.13;3.60;;;;;;;6.73;nan;99577.09;4984394;28;20041;-70
2024/01/06 06:56:36;;;;;;;8.10;3.80;;;;;;;6.81;nan;99568.94;4987989;28;20038;-71
2024/01/06 06:59:02;;;;;;;8.90;3.70;;;;;;;6.78;nan;99564.94;4985957;28;20030;-71
2024/01/06 07:01:27;;;;;;;8.68;3.95;;;;;;;6.81;nan;99574.94;4968158;28;20058;-71
2024/01/06 07:03:53;;;;;;;10.27;4.70;;;;;;;6.88;nan;99590.56;4986517;28;20026;-71
2024/01/06 07:06:19;;;;;;;11.35;4.53;;;;;;;6.91;nan;99592.75;4987843;28;20061;-71
2024/01/06 07:08:45;;;;;;;8.68;4.32;;;;;;;6.93;nan;99584.69;4981813;28;20477;-71
2024/01/06 07:11:11;;;;;;;9.15;4.45;;;;;;;7.01;nan;99606.09;4986769;28;20026;-70
2024/01/06 07:13:36;;;;;;;9.45;3.90;;;;;;;;;;4984766;28;20032;-70
2024/01/06 07:16:02;;;;;;;7.95;4.00;;;;;;;;;;4984665;28;20109;-71
2024/01/06 07:18:27;;;;;;;7.40;3.50;;;;;;;;;;4984755;28;20018;-69
2024/01/06 07:20:52;;;;;;;7.68;3.42;;;;;;;;;;4966932;28;20075;-69
2024/01/06 07:23:18;;;;;;;5.82;3.10;;;;;;;;;;4982877;28;20039;-71
2024/01/06 07:25:43;;;;;;;6.70;3.27;;;;;;;;;;4986670;28;20049;-71
2024/01/06 07:28:09;;;;;;;5.30;2.67;;;;;;;;;;4988093;28;20302;-71
2024/01/06 07:30:34;;;;;;;6.57;2.97;;;;;;;;;;4969460;28;20465;-72
2024/01/06 07:33:00;;;;;;;12.57;5.60;;;;;;;;;;4969819;28;20113;-71
2024/01/06 07:35:25;;;;;;;14.55;5.75;;;;;;;;;;4988019;28;20030;-71
2024/01/06 07:37:51;;;;;;;14.30;6.20;;;;;;;;;;4968278;28;20026;-71
2024/01/06 07:40:16;;;;;;;13.65;6.50;;;;;;;;;;4984185;28;20101;-71
2024/01/06 07:42:42;;;;;;;12.05;5.80;;;;;;;;;;4987196;28;20022;-71
2024/01/06 07:45:07;;;;;;;14.13;6.18;;;;;;;;;;4967826;28;20407;-70
2024/01/06 07:47:33;;;;;;;13.95;8.15;;;;;;;;;;4969752;28;20023;-71
2024/01/06 07:49:58;;;;;;;8.13;5.73;;;;;;;;;;4982779;28;20026;-71
2024/01/06 07:52:23;;;;;;;9.23;5.75;;;;;;;;;;4969152;28;20275;-71
2024/01/06 07:54:48;;;;;;;10.23;5.43;;;;;;;;;;4981819;28;20094;-71
2024/01/06 07:57:14;;;;;;;8.50;5.20;;;;;;;;;;4988433;28;20756;-71
2024/01/06 07:59:39;;;;;;;9.70;4.78;;;;;;;;;;4988590;28;20392;-70
2024/01/06 08:02:05;;;;;;;11.10;4.38;;;;;;;;;;4987809;28;20034;-71
2024/01/06 08:04:30;;;;;;;9.40;4.30;;;;;;;;;;4972848;28;20392;-71
2024/01/06 08:06:56;;;;;;;8.10;3.75;;;;;;;;;;4987029;28;20381;-71
2024/01/06 08:09:23;;;;;;;7.18;3.25;;;;;;;;;;4988188;28;20026;-71
2024/01/06 08:11:49;;;;;;;5.97;3.50;;;;;;;;;;4991659;28;20113;-71
2024/01/06 08:14:14;;;;;;;4.85;2.58;;;;;;;;;;4972414;28;20096;-70
2024/01/06 08:16:39;;;;;;;7.57;2.80;;;;;;;;;;4967783;28;20089;-71
2024/01/06 08:19:05;;;;;;;7.80;2.80;;;;;;;;;;4988462;28;20098;-70
2024/01/06 08:21:30;;;;;;;5.70;2.70;;;;;;;9.26;nan;99562.31;4987097;28;21013;-73
2024/01/06 08:23:55;;;;;;;4.82;2.15;;;;;;;;;;4985985;28;20026;-72
2024/01/06 08:26:21;;;;;;;5.40;2.10;;;;;;;;;;4986753;28;20114;-71
2024/01/06 08:28:46;;;;;;;5.68;2.10;;;;;;;;;;4969849;28;20065;-72
2024/01/06 08:31:11;;;;;;;5.07;2.27;;;;;;;;;;4987081;28;20030;-70
2024/01/06 08:33:37;;;;;;;4.65;2.00;;;;;;;;;;4970144;28;20359;-72
2024/01/06 08:36:02;;;;;;;5.43;1.83;;;;;;;;;;4988514;28;20022;-70
2024/01/06 08:38:27;;;;;;;5.28;2.20;;;;;;;;;;4985989;28;20287;-71
2024/01/06 08:40:53;;;;;;;3.75;1.85;;;;;;;;;;4970744;28;20038;-71
2024/01/06 08:43:18;;;;;;;4.53;1.95;;;;;;;;;;4986387;28;20030;-70
2024/01/06 08:45:44;;;;;;;3.40;2.00;;;;;;;;;;4987191;28;20556;-72
2024/01/06 08:48:12;;;;;;;3.88;1.60;;;;;;;;;;4987419;28;20656;-69
2024/01/06 08:50:37;;;;;;;4.55;1.83;;;;;;;;;;4987701;28;20030;-71
2024/01/06 08:53:02;;;;;;;3.15;1.70;;;;;;;;;;4969821;28;20089;-70
2024/01/06 08:55:28;;;;;;;3.08;1.73;;;;;;;;;;4988465;28;20030;-70
2024/01/06 08:57:53;;;;;;;2.87;1.30;;;;;;;;;;4968650;28;20136;-71
2024/01/06 09:00:18;;;;;;;2.47;1.43;;;;;;;;;;4989917;28;20363;-71
2024/01/06 09:02:43;;;;;;;4.47;1.70;;;;;;;;;;4971803;28;20268;-71
2024/01/06 09:05:09;;;;;;;3.67;1.60;;;;;;;;;;4987105;28;20030;-71
2024/01/06 09:07:34;;;;;;;3.88;1.70;;;;;;;;;;4989037;28;20275;-71
2024/01/06 09:09:59;;;;;;;2.87;1.50;;;;;;;;;;4971305;28;20365;-70
2024/01/06 09:12:25;;;;;;;2.90;1.70;;;;;;;;;;4987342;28;20361;-69
2024/01/06 09:14:50;;;;;;;2.75;1.60;;;;;;;;;;4988562;28;20053;-71
2024/01/06 09:17:16;;;;;;;3.88;1.60;;;;;;;11.60;nan;99584.00;4988424;28;20034;-71
2024/01/06 09:19:41;;;;;;;2.80;1.40;;;;;;;11.63;nan;99571.09;4973260;28;20041;-71
2024/01/06 09:22:07;;;;;;;3.47;1.58;;;;;;;11.77;nan;99584.66;4970906;28;20034;-70
2024/01/06 09:24:33;;;;;;;3.03;1.60;;;;;;;11.83;nan;99577.59;4981146;28;20022;-69
2024/01/06 09:26:59;;;;;;;5.90;1.90;;;;;;;11.95;nan;99580.88;4983609;28;20046;-71
2024/01/06 09:29:24;;;;;;;3.08;1.52;;;;;;;12.03;nan;99580.38;4971092;28;20503;-70
2024/01/06 09:31:49;;;;;;;7.10;2.00;;;;;;;;;;4988103;28;20037;-71
2024/01/06 09:34:14;;;;;;;3.77;1.77;;;;;;;;;;4986816;28;20591;-71
2024/01/06 09:36:40;;;;;;;4.23;1.87;;;;;;;;;;4983465;28;20276;-69
2024/01/06 09:39:05;;;;;;;3.97;1.70;;;;;;;;;;4971138;28;20334;-73
2024/01/06 09:41:34;;;;;;;2.90;1.70;;;;;;;12.75;nan;99649.41;4966896;28;20698;-72
2024/01/06 09:43:59;;;;;;;3.50;1.70;;;;;;;12.13;nan;99554.03;4969610;28;20501;-74
2024/01/06 09:46:31;;;;;;;5.78;1.63;;;;;;;12.21;nan;99557.25;4966029;28;20073;-72
2024/01/06 09:48:58;;;;;;;4.32;1.85;;;;;;;12.24;nan;99556.75;4970962;28;20101;-72
2024/01/06 09:51:24;;;;;;;3.63;1.70;;;;;;;12.14;nan;99533.75;4986794;28;20077;-72
2024/01/06 09:54:09;;;;;;;3.35;1.85;;;;;;;12.28;nan;99555.16;4984621;28;20054;-73
2024/01/06 09:56:35;;;;;;;3.55;1.40;;;;;;;12.30;nan;99555.72;4987074;28;20022;-71
2024/01/06 09:59:01;;;;;;;4.13;1.70;;;;;;;12.22;nan;99543.81;4988061;28;20038;-71
2024/01/06 10:01:26;;;;;;;4.55;1.95;;;;;;;12.29;nan;99546.22;4989405;28;20251;-72
2024/01/06 10:03:52;;;;;;;4.35;1.92;;;;;;;12.24;nan;99535.63;4986197;28;20027;-70
2024/01/06 10:06:18;;;;;;;3.63;1.75;;;;;;;12.33;nan;99548.09;4963529;28;20030;-71
2024/01/06 10:08:44;;;;;;;4.50;1.90;;;;;;;12.27;nan;99532.47;4983532;28;20492;-71
2024/01/06 10:11:10;;;;;;;5.40;1.75;;;;;;;12.31;nan;99537.00;4986301;28;20030;-71
2024/01/06 10:13:38;;;;;;;4.68;2.00;;;;;;;12.23;nan;99524.25;4983877;28;20444;-73
2024/01/06 10:16:04;;;;;;;3.33;1.63;;;;;;;12.30;nan;99524.81;4986482;28;20022;-71
2024/01/06 10:18:30;;;;;;;2.67;1.55;;;;;;;12.32;nan;99529.84;4987008;28;20735;-72
2024/01/06 10:20:57;;;;;;;2.67;1.42;;;;;;;12.37;nan;99531.72;4971573;28;20092;-72
2024/01/06 10:23:23;;;;;;;3.13;1.50;;;;;;;12.38;nan;99528.03;4985613;28;20037;-70
2024/01/06 10:25:55;;;;;;;4.30;1.63;;;;;;;12.39;nan;99526.97;4966139;28;20041;-73
2024/01/06 10:28:22;;;;;;;3.35;1.92;;;;;;;12.37;nan;99513.25;4981169;28;20472;-72
2024/01/06 10:30:48;;;;;;;4.50;1.80;;;;;;;12.33;nan;99512.94;4984745;28;20034;-72
2024/01/06 10:33:13;;;;;;;2.83;1.70;;;;;;;12.28;nan;99499.72;4984712;28;20026;-71
2024/01/06 10:35:40;;;;;;;3.00;1.90;;;;;;;12.39;nan;99508.50;4988456;28;20057;-71
2024/01/06 10:38:07;;;;;;;3.30;2.00;;;;;;;12.33;nan;99491.81;4984677;28;20429;-71
2024/01/06 10:40:33;;;;;;;5.15;1.63;;;;;;;12.34;nan;99496.88;4984695;28;20102;-69
2024/01/06 10:43:00;;;;;;;2.45;1.73;;;;;;;12.28;nan;99483.91;4984482;28;20034;-71
2024/01/06 10:45:28;;;;;;;4.35;2.00;;;;;;;12.28;nan;99478.63;4986861;28;20492;-71
2024/01/06 10:47:54;;;;;;;3.42;1.70;;;;;;;12.31;nan;99492.09;4984453;28;20041;-70
2024/01/06 10:50:21;;;;;;;4.07;2.00;;;;;;;12.21;nan;99472.78;4982992;28;20053;-70
2024/01/06 10:52:47;;;;;;;4.25;2.05;;;;;;;12.33;nan;99478.63;4979935;28;20066;-71
2024/01/06 10:55:17;;;;;;;3.72;2.00;;;;;;;12.32;nan;99477.84;4964861;28;20022;-70
2024/01/06 10:57:43;;;;;;;;;;;;;;;12.36;nan;99475.50;4984091;28;20066;-70
2024/01/06 11:00:10;;;;;;;3.13;1.92;;;;;;;12.35;nan;99473.88;4986829;28;19968;-70
2024/01/06 11:02:35;;;;;;;3.67;1.95;;;;;;;12.30;nan;99458.03;4980870;28;20053;-71
2024/01/06 11:05:01;;;;;;;3.78;2.20;;;;;;;12.37;nan;99468.38;4984654;28;20082;-69
2024/01/06 11:07:28;;;;;;;4.28;2.05;;;;;;;12.37;nan;99460.44;4968459;28;20030;-70
2024/01/06 11:10:05;;;;;;;5.78;2.15;;;;;;;12.41;nan;99456.25;4981750;28;20038;-71
2024/01/06 11:12:31;;;;;;;5.47;2.10;;;;;;;12.38;nan;99430.34;4983226;28;20057;-71
2024/01/06 11:14:57;;;;;;;5.00;2.10;;;;;;;12.43;nan;99446.22;4984318;28;20034;-71
2024/01/06 11:17:58;;;;;;;3.60;1.80;;;;;;;12.28;nan;99407.34;4984197;28;20030;-70
2024/01/06 11:20:29;;;;;;;4.93;2.47;;;;;;;12.40;nan;99423.75;4984179;28;20129;-71
2024/01/06 11:22:55;;;;;;;4.07;1.85;;;;;;;12.48;nan;99433.03;4983846;28;20138;-70
2024/01/06 11:25:22;;;;;;;5.05;1.83;;;;;;;12.52;nan;99426.16;4980571;28;20058;-69
2024/01/06 11:27:49;;;;;;;4.07;1.98;;;;;;;12.54;nan;99424.81;4983174;28;20053;-69
2024/01/06 11:30:25;;;;;;;3.85;1.60;;;;;;;12.59;nan;99416.13;4961558;28;20030;-71
2024/01/06 11:32:55;;;;;;;8.30;1.80;;;;;;;12.71;nan;99423.78;4968426;28;20034;-71
2024/01/06 11:35:21;;;;;;;2.97;1.80;;;;;;;12.72;nan;99414.84;4964237;28;20034;-71
2024/01/06 11:37:47;;;;;;;4.35;1.60;;;;;;;12.79;nan;99414.59;4986079;28;20073;-70
2024/01/06 11:40:21;;;;;;;5.38;1.80;;;;;;;12.84;nan;99414.59;4970673;28;20061;-70
2024/01/06 11:43:05;;;;;;;3.40;1.73;;;;;;;12.85;nan;99395.81;4986142;28;20042;-70
2024/01/06 11:45:32;;;;;;;2.60;1.40;;;;;;;12.93;nan;99403.22;4982585;28;20050;-70
2024/01/06 11:48:03;;;;;;;3.20;1.58;;;;;;;12.97;nan;99398.97;4985429;28;20018;-70
2024/01/06 11:50:39;;;;;;;4.82;1.77;;;;;;;12.94;nan;99388.16;4986145;28;20061;-70
2024/01/06 11:53:07;;;;;;;2.88;1.60;;;;;;;12.98;nan;99390.00;4981090;28;20137;-70
2024/01/06 11:55:32;;;;;;;3.20;1.70;;;;;;;13.01;nan;99382.59;4980308;28;20031;-70
2024/01/06 11:58:01;;;;;;;3.47;1.67;;;;;;;12.96;nan;99386.81;4979814;28;20085;-70
2024/01/06 12:00:27;;;;;;;2.70;1.70;;;;;;;12.95;nan;99372.03;4979050;28;20030;-69
2024/01/06 12:03:00;;;;;;;2.05;1.50;;;;;;;13.01;nan;99372.03;4984373;28;20041;-70
2024/01/06 12:05:27;;;;;;;4.03;1.95;;;;;;;12.95;nan;99372.03;4963633;28;20097;-69
2024/01/06 12:07:57;;;;;;;4.15;1.58;;;;;;;12.95;nan;99369.41;4984926;28;20198;-70
2024/01/06 12:10:24;;;;;;;4.90;2.30;;;;;;;12.94;nan;99359.88;4985328;28;20031;-70
2024/01/06 12:13:00;;;;;;;4.15;1.88;;;;;;;12.97;nan;99369.13;4984587;28;20027;-70
2024/01/06 12:15:27;;;;;;;5.40;1.50;;;;;;;12.88;nan;99354.84;4987166;28;20030;-72
2024/01/06 12:17:52;;;;;;;2.88;1.80;;;;;;;13.02;nan;99370.97;4984598;28;20034;-70
2024/01/06 12:20:18;;;;;;;2.65;1.48;;;;;;;12.96;nan;99370.19;4986710;28;20796;-71
2024/01/06 12:22:44;;;;;;;4.40;1.70;;;;;;;12.93;nan;99362.78;4986843;28;20026;-71
2024/01/06 12:25:10;;;;;;;3.20;1.75;;;;;;;12.97;nan;99364.63;4985436;28;20023;-70
2024/01/06 12:27:35;;;;;;;3.78;1.77;;;;;;;12.91;nan;99352.47;4988106;28;20113;-70
2024/01/06 12:30:01;;;;;;;4.35;1.88;;;;;;;13.04;nan;99368.84;4985866;28;20027;-70
2024/01/06 12:32:27;;;;;;;6.05;2.05;;;;;;;13.02;nan;99370.97;4985646;28;20037;-70
2024/01/06 12:34:53;;;;;;;3.78;1.60;;;;;;;12.97;nan;99361.19;4986693;28;20037;-69
2024/01/06 12:37:18;;;;;;;2.80;1.48;;;;;;;12.99;nan;99365.16;4985939;28;20030;-70
2024/01/06 12:39:46;;;;;;;5.65;2.08;;;;;;;13.01;nan;99359.59;4969233;28;20026;-71
2024/01/06 12:42:16;;;;;;;4.72;1.60;;;;;;;13.03;nan;99367.28;4970860;28;20064;-70
2024/01/06 12:44:42;;;;;;;;;;;;;;;13.03;nan;99362.78;4986854;28;20125;-71
2024/01/06 12:47:08;;;;;;;4.53;1.60;;;;;;;12.85;nan;99337.69;4983684;28;20008;-70
2024/01/06 12:49:33;;;;;;;2.58;1.52;;;;;;;12.92;nan;99343.47;4984891;28;20566;-70
2024/01/06 12:51:59;;;;;;;5.90;1.75;;;;;;;12.99;nan;99356.44;4987982;28;20022;-70
2024/01/06 12:54:24;;;;;;;3.05;1.80;;;;;;;12.97;nan;99347.97;4984943;28;20122;-68
2024/01/06 12:56:49;;;;;;;5.53;2.55;;;;;;;12.99;nan;99351.94;4968024;28;20129;-70
2024/01/06 12:59:15;;;;;;;5.05;1.90;;;;;;;12.89;nan;99344.03;4981619;28;20114;-70
2024/01/06 13:01:42;;;;;;;6.00;1.73;;;;;;;12.93;nan;99347.72;4980018;28;20108;-69
2024/01/06 13:04:07;;;;;;;4.28;2.00;;;;;;;12.89;nan;99351.16;4983610;28;20388;-70
2024/01/06 13:06:32;;;;;;;2.85;1.77;;;;;;;12.95;nan;99358.81;4962444;28;20036;-70
2024/01/06 13:08:58;;;;;;;4.53;1.80;;;;;;;12.94;nan;99348.50;4984016;28;20023;-69
2024/01/06 13:11:24;;;;;;;3.30;1.73;;;;;;;12.87;nan;99338.22;4985189;28;20053;-68
2024/01/06 13:13:49;;;;;;;2.50;1.70;;;;;;;12.86;nan;99341.13;4985970;28;20555;-69
2024/01/06 13:16:15;;;;;;;2.42;1.40;;;;;;;12.90;nan;99348.25;4984999;28;20030;-72